createdAt,value
2019-02-21T00:01:57.934Z,5.33
2019-02-21T00:04:25.430Z,5.05
2019-02-21T00:06:52.812Z,5.62
2019-02-21T00:09:20.219Z,5.25
2019-02-21T00:11:47.752Z,4.60
2019-02-21T00:14:15.363Z,5.20
2019-02-21T00:16:42.858Z,5.37
2019-02-21T00:19:10.525Z,5.62
2019-02-21T00:21:38.148Z,5.22
2019-02-21T00:24:08.428Z,5.60
2019-02-21T00:26:36.637Z,5.40
2019-02-21T00:29:04.040Z,5.53
2019-02-21T00:31:31.477Z,5.40
2019-02-21T00:33:59.070Z,5.17
2019-02-21T00:36:26.733Z,5.65
2019-02-21T00:38:54.132Z,5.62
2019-02-21T00:41:21.608Z,5.62
2019-02-21T00:43:49.027Z,5.35
2019-02-21T00:46:16.438Z,6.10
2019-02-21T00:48:44.002Z,5.45
2019-02-21T00:51:11.397Z,5.47
2019-02-21T00:53:38.796Z,5.40
2019-02-21T00:56:06.348Z,5.50
2019-02-21T00:58:33.832Z,5.75
2019-02-21T01:01:01.237Z,6.22
2019-02-21T01:03:28.649Z,5.60
2019-02-21T01:05:56.108Z,5.78
2019-02-21T01:08:23.500Z,5.70
2019-02-21T01:10:50.919Z,6.17
2019-02-21T01:13:18.351Z,5.35
2019-02-21T01:15:45.882Z,6.20
2019-02-21T01:18:13.484Z,5.97
2019-02-21T01:20:40.972Z,5.60
2019-02-21T01:23:08.384Z,5.58
2019-02-21T01:25:35.869Z,5.45
2019-02-21T01:28:22.220Z,6.10
2019-02-21T01:30:56.632Z,5.83
2019-02-21T01:33:18.752Z,5.65
2019-02-21T01:35:46.188Z,5.55
2019-02-21T01:38:13.740Z,5.47
2019-02-21T01:40:41.144Z,5.33
2019-02-21T01:43:08.725Z,5.33
2019-02-21T01:45:36.127Z,5.72
2019-02-21T01:48:03.816Z,5.35
2019-02-21T01:50:32.220Z,5.20
2019-02-21T01:52:59.610Z,5.75
2019-02-21T01:55:27.209Z,5.30
2019-02-21T01:57:54.731Z,5.10
2019-02-21T02:00:22.133Z,5.75
2019-02-21T02:02:49.534Z,5.80
2019-02-21T02:05:16.986Z,6.03
2019-02-21T02:07:44.374Z,5.50
2019-02-21T02:10:11.772Z,5.90
2019-02-21T02:12:39.316Z,5.87
2019-02-21T02:15:06.872Z,5.45
2019-02-21T02:17:34.278Z,5.58
2019-02-21T02:20:01.725Z,5.60
2019-02-21T02:22:29.168Z,5.83
2019-02-21T02:24:56.561Z,5.80
2019-02-21T02:27:24.836Z,5.85
2019-02-21T02:29:52.336Z,5.80
2019-02-21T02:32:19.822Z,6.03
2019-02-21T02:34:47.250Z,6.37
2019-02-21T02:37:14.617Z,6.00
2019-02-21T02:39:42.011Z,6.00
2019-02-21T02:42:10.291Z,5.78
2019-02-21T02:44:37.722Z,5.97
2019-02-21T02:47:05.245Z,6.17
2019-02-21T02:49:33.299Z,5.73
2019-02-21T02:52:00.869Z,6.00
2019-02-21T02:54:28.255Z,6.45
2019-02-21T02:56:55.678Z,5.75
2019-02-21T02:59:23.098Z,6.60
2019-02-21T03:01:51.297Z,6.45
2019-02-21T03:04:18.748Z,6.00
2019-02-21T03:06:46.284Z,6.10
2019-02-21T03:09:13.664Z,6.08
2019-02-21T03:11:41.293Z,5.97
2019-02-21T03:14:08.707Z,5.60
2019-02-21T03:16:36.092Z,5.97
2019-02-21T03:19:03.514Z,5.67
2019-02-21T03:21:30.921Z,6.33
2019-02-21T03:23:58.321Z,5.67
2019-02-21T03:26:25.796Z,5.70
2019-02-21T03:28:53.205Z,6.10
2019-02-21T03:31:20.606Z,6.37
2019-02-21T03:33:48.086Z,5.70
2019-02-21T03:36:15.491Z,5.67
2019-02-21T03:38:42.932Z,5.30
2019-02-21T03:41:10.439Z,5.42
2019-02-21T03:43:37.832Z,5.28
2019-02-21T03:46:05.391Z,5.30
2019-02-21T03:48:32.835Z,5.25
2019-02-21T03:51:00.232Z,5.55
2019-02-21T03:53:27.623Z,5.20
2019-02-21T03:55:55.048Z,5.53
2019-02-21T03:58:22.458Z,6.00
2019-02-21T04:00:49.976Z,5.90
2019-02-21T04:03:17.392Z,6.35
2019-02-21T04:05:44.775Z,6.13
2019-02-21T04:08:12.342Z,6.25
2019-02-21T04:10:43.097Z,6.12
2019-02-21T04:13:10.496Z,6.87
2019-02-21T04:15:37.884Z,6.47
2019-02-21T04:18:05.307Z,6.42
2019-02-21T04:20:32.708Z,6.37
2019-02-21T04:23:00.088Z,6.62
2019-02-21T04:25:27.577Z,6.33
2019-02-21T04:27:55.022Z,6.50
2019-02-21T04:30:22.433Z,6.58
2019-02-21T04:32:49.876Z,6.62
2019-02-21T04:35:17.300Z,6.53
2019-02-21T04:37:44.755Z,6.50
2019-02-21T04:40:12.194Z,6.80
2019-02-21T04:42:39.674Z,7.08
2019-02-21T04:45:07.077Z,6.37
2019-02-21T04:47:34.833Z,6.92
2019-02-21T04:50:02.270Z,7.22
2019-02-21T04:52:29.667Z,6.70
2019-02-21T04:54:57.278Z,7.65
2019-02-21T04:57:24.692Z,7.60
2019-02-21T04:59:52.088Z,7.80
2019-02-21T05:02:28.583Z,7.37
2019-02-21T05:04:48.656Z,7.70
2019-02-21T05:07:16.044Z,7.47
2019-02-21T05:09:43.478Z,8.23
2019-02-21T05:12:10.941Z,8.25
2019-02-21T05:14:38.325Z,8.33
2019-02-21T05:17:05.852Z,8.28
2019-02-21T05:19:33.436Z,7.67
2019-02-21T05:22:00.849Z,8.00
2019-02-21T05:24:28.512Z,8.80
2019-02-21T05:27:00.928Z,8.30
2019-02-21T05:29:28.401Z,8.77
2019-02-21T05:32:06.082Z,8.17
2019-02-21T05:34:44.031Z,8.90
2019-02-21T05:37:45.738Z,7.92
2019-02-21T05:40:28.759Z,8.63
2019-02-21T05:43:13.929Z,8.10
2019-02-21T05:46:10.556Z,8.03
2019-02-21T05:48:47.511Z,8.10
2019-02-21T05:51:46.128Z,7.90
2019-02-21T05:54:35.234Z,7.67
2019-02-21T05:57:06.955Z,8.18
2019-02-21T06:00:05.353Z,7.37
2019-02-21T06:02:57.558Z,8.20
2019-02-21T06:05:37.361Z,8.00
2019-02-21T06:08:23.724Z,7.80
2019-02-21T06:11:03.842Z,7.30
2019-02-21T06:14:05.565Z,8.67
2019-02-21T06:16:39.144Z,8.20
2019-02-21T06:19:22.906Z,8.15
2019-02-21T06:22:15.354Z,6.85
2019-02-21T06:24:51.714Z,8.10
2019-02-21T06:27:25.845Z,7.97
2019-02-21T06:29:59.801Z,8.03
2019-02-21T06:32:27.258Z,7.75
2019-02-21T06:34:54.692Z,7.25
2019-02-21T06:37:22.092Z,7.12
2019-02-21T06:39:49.491Z,7.33
2019-02-21T06:42:16.983Z,6.97
2019-02-21T06:44:44.396Z,6.83
2019-02-21T06:47:11.796Z,7.27
2019-02-21T06:49:39.265Z,7.10
2019-02-21T06:52:06.871Z,8.35
2019-02-21T06:54:34.265Z,9.23
2019-02-21T06:57:01.889Z,9.00
2019-02-21T06:59:29.436Z,8.50
2019-02-21T07:01:56.875Z,8.88
2019-02-21T07:04:24.323Z,11.20
2019-02-21T07:06:51.745Z,11.60
2019-02-21T07:09:19.170Z,11.97
2019-02-21T07:11:46.606Z,11.88
2019-02-21T07:14:14.131Z,13.10
2019-02-21T07:16:41.606Z,12.88
2019-02-21T07:19:10.813Z,13.13
2019-02-21T07:21:38.469Z,13.15
2019-02-21T07:24:05.854Z,13.03
2019-02-21T07:26:33.396Z,13.40
2019-02-21T07:29:00.824Z,14.05
2019-02-21T07:31:29.671Z,12.85
2019-02-21T07:33:57.429Z,13.20
2019-02-21T07:36:24.836Z,12.90
2019-02-21T07:38:53.580Z,12.25
2019-02-21T07:41:21.408Z,12.93
2019-02-21T07:43:48.830Z,12.37
2019-02-21T07:46:16.272Z,11.33
2019-02-21T07:48:43.719Z,11.38
2019-02-21T07:51:13.426Z,11.33
2019-02-21T07:53:40.297Z,11.15
2019-02-21T07:56:07.740Z,11.10
2019-02-21T07:58:35.135Z,10.93
2019-02-21T08:01:02.550Z,10.98
2019-02-21T08:03:43.110Z,10.93
2019-02-21T08:05:59.347Z,10.80
2019-02-21T08:08:26.923Z,11.50
2019-02-21T08:10:54.372Z,10.30
2019-02-21T08:13:21.769Z,10.43
2019-02-21T08:15:49.167Z,10.90
2019-02-21T08:18:16.594Z,11.25
2019-02-21T08:20:44.261Z,10.43
2019-02-21T08:23:11.724Z,11.25
2019-02-21T08:25:39.175Z,10.55
2019-02-21T08:28:06.572Z,10.85
2019-02-21T08:30:34.145Z,11.28
2019-02-21T08:33:05.623Z,10.90
2019-02-21T08:35:33.023Z,9.58
2019-02-21T08:38:00.423Z,10.50
2019-02-21T08:40:27.914Z,10.43
2019-02-21T08:42:55.305Z,10.50
2019-02-21T08:45:22.852Z,10.20
2019-02-21T08:47:50.488Z,9.60
2019-02-21T08:50:17.915Z,10.68
2019-02-21T08:52:45.339Z,12.25
2019-02-21T08:55:12.901Z,12.58
2019-02-21T08:57:40.353Z,13.75
2019-02-21T09:00:07.862Z,13.32
2019-02-21T09:02:36.044Z,13.43
2019-02-21T09:05:03.688Z,13.87
2019-02-21T09:07:31.090Z,13.72
2019-02-21T09:09:58.544Z,13.58
2019-02-21T09:12:25.957Z,15.15
2019-02-21T09:14:53.367Z,13.27
2019-02-21T09:17:20.782Z,14.95
2019-02-21T09:19:48.409Z,13.78
2019-02-21T09:22:15.814Z,14.65
2019-02-21T09:24:43.257Z,14.58
2019-02-21T09:27:10.724Z,14.05
2019-02-21T09:29:38.149Z,15.17
2019-02-21T09:32:06.924Z,16.37
2019-02-21T09:34:34.632Z,15.93
2019-02-21T09:37:02.080Z,16.03
2019-02-21T09:39:29.591Z,16.80
2019-02-21T09:41:57.056Z,17.35
2019-02-21T09:44:27.129Z,17.57
2019-02-21T09:46:53.640Z,17.33
2019-02-21T09:49:21.028Z,17.80
2019-02-21T09:51:48.598Z,17.77
2019-02-21T09:54:18.920Z,17.02
2019-02-21T09:56:52.951Z,17.87
2019-02-21T09:59:14.637Z,17.80
2019-02-21T10:01:42.060Z,17.87
2019-02-21T10:04:09.452Z,18.50
2019-02-21T10:06:36.987Z,17.73
2019-02-21T10:09:07.479Z,17.90
2019-02-21T10:11:34.889Z,16.80
2019-02-21T10:14:02.397Z,16.43
2019-02-21T10:16:29.875Z,15.33
2019-02-21T10:19:00.276Z,16.27
2019-02-21T10:21:27.689Z,16.70
2019-02-21T10:23:56.716Z,15.98
2019-02-21T10:26:24.219Z,16.07
2019-02-21T10:28:51.680Z,15.38
2019-02-21T10:31:19.136Z,15.70
2019-02-21T10:33:47.477Z,15.33
2019-02-21T10:36:15.057Z,15.08
2019-02-21T10:38:42.448Z,14.40
2019-02-21T10:41:09.858Z,15.07
2019-02-21T10:43:37.275Z,15.53
2019-02-21T10:46:05.006Z,13.87
2019-02-21T10:48:32.562Z,14.65
2019-02-21T10:50:59.967Z,13.13
2019-02-21T10:53:27.369Z,12.23
2019-02-21T10:55:54.798Z,10.25
2019-02-21T10:58:22.219Z,9.55
2019-02-21T11:00:49.770Z,8.28
2019-02-21T11:03:17.258Z,9.58
2019-02-21T11:05:44.642Z,9.30
2019-02-21T11:08:12.080Z,9.40
2019-02-21T11:10:39.575Z,9.30
2019-02-21T11:13:07.076Z,8.93
2019-02-21T11:15:34.662Z,8.83
2019-02-21T11:18:02.343Z,8.08
2019-02-21T11:20:29.889Z,7.17
2019-02-21T11:22:58.142Z,7.28
2019-02-21T11:25:26.180Z,7.47
2019-02-21T11:27:53.688Z,8.53
2019-02-21T11:30:21.152Z,7.97
2019-02-21T11:32:48.684Z,7.90
2019-02-21T11:35:16.091Z,7.72
2019-02-21T11:37:46.882Z,8.18
2019-02-21T11:40:12.887Z,8.85
2019-02-21T11:42:40.293Z,7.97
2019-02-21T11:45:07.765Z,8.35
2019-02-21T11:47:35.207Z,8.53
2019-02-21T11:50:02.683Z,8.08
2019-02-21T11:52:30.140Z,8.33
2019-02-21T11:54:57.582Z,8.25
2019-02-21T11:57:25.980Z,8.35
2019-02-21T11:59:53.371Z,8.00
2019-02-21T12:02:20.790Z,8.08
2019-02-21T12:04:48.280Z,8.05
2019-02-21T12:07:15.918Z,8.18
2019-02-21T12:09:43.422Z,7.92
2019-02-21T12:12:10.987Z,7.47
2019-02-21T12:14:38.435Z,7.83
2019-02-21T12:17:05.951Z,8.20
2019-02-21T12:19:34.005Z,7.15
2019-02-21T12:22:01.874Z,7.67
2019-02-21T12:24:29.346Z,8.10
2019-02-21T12:26:56.744Z,7.97
2019-02-21T12:29:24.315Z,8.08
2019-02-21T12:31:51.914Z,7.97
2019-02-21T12:34:19.403Z,7.67
2019-02-21T12:36:47.034Z,7.28
2019-02-21T12:39:14.972Z,7.80
2019-02-21T12:41:42.619Z,7.95
2019-02-21T12:44:10.012Z,7.67
2019-02-21T12:46:37.432Z,7.35
2019-02-21T12:49:04.926Z,7.65
2019-02-21T12:51:32.328Z,7.78
2019-02-21T12:53:59.752Z,7.65
2019-02-21T12:56:27.176Z,7.33
2019-02-21T12:58:54.717Z,7.30
2019-02-21T13:01:22.118Z,7.35
2019-02-21T13:03:49.580Z,7.55
2019-02-21T13:06:17.115Z,7.22
2019-02-21T13:08:44.650Z,7.53
2019-02-21T13:11:12.032Z,8.28
2019-02-21T13:13:39.449Z,7.05
2019-02-21T13:16:06.833Z,7.08
2019-02-21T13:18:34.228Z,7.05
2019-02-21T13:21:01.748Z,7.03
2019-02-21T13:23:29.134Z,6.67
2019-02-21T13:25:56.515Z,7.12
2019-02-21T13:28:23.940Z,6.95
2019-02-21T13:30:51.350Z,7.70
2019-02-21T13:33:18.821Z,7.15
2019-02-21T13:35:52.728Z,7.78
2019-02-21T13:38:15.613Z,6.78
2019-02-21T13:40:43.132Z,7.65
2019-02-21T13:43:10.620Z,7.50
2019-02-21T13:45:38.022Z,7.20
2019-02-21T13:48:08.414Z,7.70
2019-02-21T13:50:35.812Z,7.53
2019-02-21T13:53:03.219Z,7.50
2019-02-21T13:55:30.630Z,6.95
2019-02-21T13:57:58.098Z,6.95
2019-02-21T14:00:25.492Z,8.25
2019-02-21T14:02:52.899Z,7.47
2019-02-21T14:05:20.327Z,6.92
2019-02-21T14:07:47.787Z,8.05
2019-02-21T14:10:15.194Z,8.70
2019-02-21T14:12:42.638Z,8.65
2019-02-21T14:15:10.140Z,7.78
2019-02-21T14:17:37.724Z,8.63
2019-02-21T14:20:05.176Z,8.35
2019-02-21T14:22:32.646Z,9.83
2019-02-21T14:25:00.033Z,9.73
2019-02-21T14:27:27.463Z,9.40
2019-02-21T14:29:54.857Z,9.08
2019-02-21T14:32:22.408Z,9.18
2019-02-21T14:34:49.837Z,9.00
2019-02-21T14:37:17.416Z,8.93
2019-02-21T14:39:44.984Z,9.68
2019-02-21T14:42:12.437Z,9.75
2019-02-21T14:44:40.427Z,10.05
2019-02-21T14:47:08.236Z,9.38
2019-02-21T14:49:35.782Z,9.58
2019-02-21T14:52:03.519Z,9.73
2019-02-21T14:54:30.984Z,9.33
2019-02-21T14:56:58.422Z,10.08
2019-02-21T14:59:25.847Z,10.00
2019-02-21T15:01:53.271Z,9.20
2019-02-21T15:04:20.721Z,9.38
2019-02-21T15:06:48.142Z,9.95
2019-02-21T15:09:15.642Z,9.03
2019-02-21T15:11:43.107Z,8.98
2019-02-21T15:14:10.577Z,9.25
2019-02-21T15:16:38.082Z,10.18
2019-02-21T15:19:05.498Z,9.13
2019-02-21T15:21:32.928Z,9.15
2019-02-21T15:24:00.418Z,8.88
2019-02-21T15:26:27.835Z,9.10
2019-02-21T15:28:55.309Z,8.60
2019-02-21T15:31:22.766Z,8.90
2019-02-21T15:33:50.501Z,8.33
2019-02-21T15:36:18.187Z,8.78
2019-02-21T15:38:45.898Z,8.58
2019-02-21T15:41:13.333Z,8.83
2019-02-21T15:43:40.709Z,8.33
2019-02-21T15:46:08.150Z,8.53
2019-02-21T15:48:35.571Z,7.90
2019-02-21T15:51:02.966Z,8.60
2019-02-21T15:53:30.428Z,8.70
2019-02-21T15:55:57.841Z,8.83
2019-02-21T15:58:25.264Z,9.13
2019-02-21T16:00:52.646Z,8.50
2019-02-21T16:03:20.116Z,8.45
2019-02-21T16:05:47.542Z,9.40
2019-02-21T16:08:24.949Z,9.18
2019-02-21T16:14:15.479Z,8.70
2019-02-21T16:17:02.087Z,8.43
2019-02-21T16:25:39.256Z,7.72
2019-02-21T16:28:07.146Z,7.55
2019-02-21T16:30:34.555Z,9.93
2019-02-21T16:33:02.005Z,10.18
2019-02-21T16:35:29.427Z,10.75
2019-02-21T16:37:56.875Z,10.78
2019-02-21T16:40:24.344Z,11.30
2019-02-21T16:42:51.758Z,11.10
2019-02-21T16:45:19.238Z,11.60
2019-02-21T16:47:46.763Z,11.90
2019-02-21T16:50:14.168Z,11.48
2019-02-21T16:52:41.661Z,12.23
2019-02-21T16:55:09.082Z,12.15
2019-02-21T16:57:36.561Z,12.80
2019-02-21T17:00:03.998Z,13.10
2019-02-21T17:28:36.161Z,10.85
2019-02-21T17:31:03.665Z,11.10
2019-02-21T17:33:49.991Z,10.72
2019-02-21T17:36:17.428Z,11.55
2019-02-21T17:38:45.116Z,11.18
2019-02-21T17:41:12.561Z,12.53
2019-02-21T17:43:39.974Z,12.28
2019-02-21T17:46:07.407Z,12.97
2019-02-21T17:48:38.015Z,11.83
2019-02-21T17:51:05.474Z,12.23
2019-02-21T17:53:32.873Z,12.00
2019-02-21T17:56:00.552Z,12.10
2019-02-21T17:58:29.170Z,11.78
2019-02-21T18:00:56.604Z,10.25
2019-02-21T18:03:27.202Z,10.95
2019-02-21T18:05:56.050Z,10.13
2019-02-21T18:08:23.639Z,10.18
2019-02-21T18:10:51.252Z,10.23
2019-02-21T18:13:18.663Z,10.20
2019-02-21T18:15:46.085Z,8.83
2019-02-21T18:18:13.761Z,9.03
2019-02-21T18:20:41.271Z,9.08
2019-02-21T18:23:08.819Z,9.10
2019-02-21T18:25:36.324Z,8.65
2019-02-21T18:28:03.827Z,8.50
2019-02-21T18:30:31.242Z,8.90
2019-02-21T18:32:58.775Z,9.03
2019-02-21T18:35:26.213Z,8.58
2019-02-21T18:37:53.600Z,8.63
2019-02-21T18:40:21.259Z,8.80
2019-02-21T18:42:48.747Z,8.48
2019-02-21T18:45:16.178Z,8.37
2019-02-21T18:47:43.589Z,8.85
2019-02-21T18:50:11.333Z,9.48
2019-02-21T18:52:38.740Z,10.58
2019-02-21T18:55:06.156Z,11.43
2019-02-21T18:57:33.655Z,10.58
2019-02-21T19:00:01.092Z,12.03
2019-02-21T19:02:28.555Z,11.83
2019-02-21T19:04:56.037Z,11.03
2019-02-21T19:07:23.531Z,11.10
2019-02-21T19:09:50.960Z,10.35
2019-02-21T19:12:18.484Z,10.13
2019-02-21T19:14:46.003Z,10.68
2019-02-21T19:17:13.442Z,9.55
2019-02-21T19:19:40.881Z,9.25
2019-02-21T19:22:08.332Z,9.88
2019-02-21T19:24:37.108Z,9.83
2019-02-21T19:27:05.103Z,9.45
2019-02-21T19:29:32.623Z,9.05
2019-02-21T19:32:00.284Z,9.38
2019-02-21T19:34:27.845Z,8.93
2019-02-21T19:36:55.284Z,9.28
2019-02-21T19:39:22.688Z,9.05
2019-02-21T19:41:50.132Z,8.63
2019-02-21T19:44:17.551Z,8.73
2019-02-21T19:46:45.035Z,9.33
2019-02-21T19:49:12.562Z,9.00
2019-02-21T19:51:39.965Z,9.58
2019-02-21T19:54:07.395Z,8.38
2019-02-21T19:56:34.828Z,9.70
2019-02-21T19:59:02.233Z,9.15
2019-02-21T20:01:29.746Z,9.25
2019-02-21T20:03:57.272Z,8.93
2019-02-21T20:06:24.800Z,8.40
2019-02-21T20:08:52.283Z,8.63
2019-02-21T20:11:19.852Z,8.70
2019-02-21T20:13:47.269Z,8.70
2019-02-21T20:16:14.685Z,8.88
2019-02-21T20:18:42.220Z,8.80
2019-02-21T20:21:09.780Z,8.20
2019-02-21T20:23:37.332Z,9.40
2019-02-21T20:26:04.800Z,9.15
2019-02-21T20:28:32.271Z,8.43
2019-02-21T20:30:59.743Z,9.00
2019-02-21T20:33:27.405Z,9.35
2019-02-21T20:35:54.906Z,8.15
2019-02-21T20:38:31.800Z,9.20
2019-02-21T20:40:53.982Z,8.80
2019-02-21T20:43:21.433Z,9.13
2019-02-21T20:45:52.918Z,8.63
2019-02-21T20:48:18.053Z,9.38
2019-02-21T20:50:56.116Z,8.53
2019-02-21T20:53:14.630Z,8.58
2019-02-21T20:55:43.667Z,9.48
2019-02-21T20:58:11.859Z,9.48
2019-02-21T21:00:39.444Z,8.88
2019-02-21T21:03:06.838Z,9.53
2019-02-21T21:05:34.360Z,9.60
2019-02-21T21:08:01.882Z,9.28
2019-02-21T21:10:29.290Z,10.10
2019-02-21T21:12:56.771Z,9.48
2019-02-21T21:15:24.208Z,9.53
2019-02-21T21:17:51.698Z,9.55
2019-02-21T21:20:19.177Z,9.75
2019-02-21T21:22:46.620Z,10.55
2019-02-21T21:25:14.104Z,9.65
2019-02-21T21:27:41.536Z,10.23
2019-02-21T21:30:08.985Z,9.80
2019-02-21T21:32:36.460Z,9.73
2019-02-21T21:35:03.925Z,9.58
2019-02-21T21:37:31.410Z,9.90
2019-02-21T21:39:58.875Z,10.03
2019-02-21T21:42:26.384Z,9.60
2019-02-21T21:44:53.812Z,9.65
2019-02-21T21:47:21.258Z,10.17
2019-02-21T21:49:48.677Z,10.30
2019-02-21T21:52:16.110Z,10.45
2019-02-21T21:54:43.563Z,10.58
2019-02-21T21:57:11.282Z,10.90
2019-02-21T21:59:38.763Z,10.10
2019-02-21T22:02:06.284Z,10.40
2019-02-21T22:04:33.758Z,10.93
2019-02-21T22:07:01.197Z,10.08
2019-02-21T22:09:28.616Z,10.15
2019-02-21T22:11:56.083Z,10.08
2019-02-21T22:14:23.515Z,10.78
2019-02-21T22:16:51.337Z,10.60
2019-02-21T22:19:18.808Z,10.35
2019-02-21T22:21:46.234Z,10.43
2019-02-21T22:24:13.619Z,10.05
2019-02-21T22:26:41.160Z,10.25
2019-02-21T22:29:08.586Z,9.97
2019-02-21T22:31:35.989Z,10.28
2019-02-21T22:34:03.441Z,10.08
2019-02-21T22:36:30.863Z,10.78
2019-02-21T22:38:58.581Z,10.85
2019-02-21T22:41:28.116Z,9.83
2019-02-21T22:43:55.235Z,8.78
2019-02-21T22:46:23.214Z,9.00
2019-02-21T22:48:50.723Z,9.73
2019-02-21T22:51:18.663Z,8.75
2019-02-21T22:53:46.386Z,8.28
2019-02-21T22:56:13.805Z,8.73
2019-02-21T22:58:45.103Z,9.38
2019-02-21T23:01:15.919Z,8.58
2019-02-21T23:03:43.344Z,8.13
2019-02-21T23:06:11.077Z,8.73
2019-02-21T23:08:38.720Z,9.48
2019-02-21T23:11:06.135Z,8.98
2019-02-21T23:13:33.565Z,9.93
2019-02-21T23:16:00.962Z,10.75
2019-02-21T23:18:28.695Z,10.63
2019-02-21T23:20:56.205Z,10.60
2019-02-21T23:23:23.711Z,10.28
2019-02-21T23:25:51.111Z,10.38
2019-02-21T23:28:18.747Z,10.45
2019-02-21T23:30:46.221Z,11.33
2019-02-21T23:33:13.620Z,11.97
2019-02-21T23:35:41.141Z,12.25
2019-02-21T23:38:08.761Z,13.03
2019-02-21T23:40:37.058Z,13.35
2019-02-21T23:43:04.673Z,13.03
2019-02-21T23:45:32.270Z,13.75
2019-02-21T23:47:59.666Z,12.35
2019-02-21T23:50:27.172Z,12.33
2019-02-21T23:52:54.584Z,13.13
2019-02-21T23:55:22.031Z,12.70
2019-02-21T23:57:49.488Z,12.18
